createdAt,value
2018-02-13T00:00:06.392Z,4.90
2018-02-13T00:01:07.803Z,5.25
2018-02-13T00:02:10.331Z,4.50
2018-02-13T00:03:12.473Z,5.25
2018-02-13T00:04:14.645Z,4.68
2018-02-13T00:05:16.097Z,5.28
2018-02-13T00:06:17.483Z,4.00
2018-02-13T00:07:19.113Z,5.20
2018-02-13T00:08:20.521Z,4.75
2018-02-13T00:09:22.181Z,4.60
2018-02-13T00:10:24.574Z,4.75
2018-02-13T00:11:25.993Z,5.00
2018-02-13T00:12:28.877Z,4.72
2018-02-13T00:13:30.609Z,4.60
2018-02-13T00:14:32.551Z,5.05
2018-02-13T00:15:35.097Z,4.90
2018-02-13T00:16:37.253Z,4.70
2018-02-13T00:17:38.817Z,4.75
2018-02-13T00:18:41.139Z,4.90
2018-02-13T00:19:42.582Z,4.75
2018-02-13T00:20:44.714Z,5.20
2018-02-13T00:21:46.113Z,4.53
2018-02-13T00:22:49.219Z,5.75
2018-02-13T00:23:50.610Z,5.20
2018-02-13T00:24:52.445Z,5.05
2018-02-13T00:25:53.907Z,5.22
2018-02-13T00:26:55.305Z,5.60
2018-02-13T00:27:56.751Z,5.15
2018-02-13T00:28:58.148Z,5.35
2018-02-13T00:30:01.334Z,5.83
2018-02-13T00:31:03.723Z,5.13
2018-02-13T00:32:05.343Z,5.87
2018-02-13T00:33:06.739Z,5.70
2018-02-13T00:34:08.180Z,5.82
2018-02-13T00:35:10.117Z,5.10
2018-02-13T00:36:12.259Z,5.68
2018-02-13T00:37:13.641Z,5.55
2018-02-13T00:38:15.309Z,5.47
2018-02-13T00:39:16.727Z,5.18
2018-02-13T00:40:18.149Z,4.85
2018-02-13T00:41:19.713Z,5.07
2018-02-13T00:42:22.629Z,5.32
2018-02-13T00:43:24.007Z,5.17
2018-02-13T00:44:25.575Z,5.28
2018-02-13T00:45:27.413Z,5.28
2018-02-13T00:46:30.501Z,5.05
2018-02-13T00:47:31.889Z,5.62
2018-02-13T00:48:33.289Z,5.50
2018-02-13T00:49:35.443Z,5.00
2018-02-13T00:50:37.615Z,5.40
2018-02-13T00:51:39.755Z,5.60
2018-02-13T00:52:41.307Z,5.28
2018-02-13T00:53:42.730Z,5.18
2018-02-13T00:54:44.191Z,5.37
2018-02-13T00:55:46.511Z,5.43
2018-02-13T00:56:48.035Z,5.00
2018-02-13T00:57:49.454Z,5.83
2018-02-13T00:58:50.837Z,4.93
2018-02-13T00:59:52.240Z,4.97
2018-02-13T01:00:53.917Z,5.30
2018-02-13T01:01:55.313Z,5.62
2018-02-13T01:02:56.733Z,5.43
2018-02-13T01:03:58.875Z,5.45
2018-02-13T01:05:01.989Z,5.25
2018-02-13T01:06:04.643Z,5.43
2018-02-13T01:07:07.528Z,5.55
2018-02-13T01:08:09.669Z,5.43
2018-02-13T01:09:12.233Z,5.18
2018-02-13T01:10:14.375Z,5.12
2018-02-13T01:11:15.780Z,5.47
2018-02-13T01:12:17.181Z,5.68
2018-02-13T01:13:19.313Z,5.62
2018-02-13T01:14:22.593Z,5.57
2018-02-13T01:15:24.003Z,5.30
2018-02-13T01:16:25.407Z,5.80
2018-02-13T01:17:57.696Z,4.60
2018-02-13T01:18:59.162Z,5.07
2018-02-13T01:20:00.561Z,5.18
2018-02-13T01:21:02.048Z,5.10
2018-02-13T01:22:04.549Z,5.43
2018-02-13T01:23:07.785Z,5.85
2018-02-13T01:24:09.367Z,5.95
2018-02-13T01:25:10.781Z,5.15
2018-02-13T01:26:12.185Z,5.47
2018-02-13T01:27:14.848Z,5.22
2018-02-13T01:28:17.365Z,5.25
2018-02-13T01:29:18.753Z,5.47
2018-02-13T01:30:20.488Z,5.65
2018-02-13T01:31:21.897Z,6.12
2018-02-13T01:32:23.306Z,5.53
2018-02-13T01:33:24.873Z,6.05
2018-02-13T01:34:27.981Z,5.70
2018-02-13T01:35:30.115Z,6.40
2018-02-13T01:36:32.997Z,6.13
2018-02-13T01:37:34.677Z,6.12
2018-02-13T01:38:36.172Z,5.47
2018-02-13T01:39:37.589Z,5.60
2018-02-13T01:40:39.721Z,5.62
2018-02-13T01:41:41.323Z,5.72
2018-02-13T01:42:43.078Z,5.87
2018-02-13T01:43:44.481Z,5.80
2018-02-13T01:44:45.857Z,5.43
2018-02-13T01:45:47.527Z,6.00
2018-02-13T01:46:48.951Z,5.70
2018-02-13T01:47:51.102Z,5.82
2018-02-13T01:48:53.273Z,5.80
2018-02-13T01:49:55.393Z,5.93
2018-02-13T01:50:56.788Z,5.78
2018-02-13T01:51:58.185Z,5.68
2018-02-13T01:52:59.812Z,6.10
2018-02-13T01:54:01.223Z,5.55
2018-02-13T01:55:02.621Z,5.90
2018-02-13T01:56:04.773Z,5.95
2018-02-13T01:57:07.279Z,6.07
2018-02-13T01:58:08.965Z,5.68
2018-02-13T01:59:10.365Z,6.18
2018-02-13T02:00:11.815Z,6.25
2018-02-13T02:01:13.277Z,6.10
2018-02-13T02:02:22.544Z,5.62
2018-02-13T02:03:25.007Z,5.80
2018-02-13T02:04:28.095Z,6.40
2018-02-13T02:05:29.469Z,6.10
2018-02-13T02:06:30.893Z,5.83
2018-02-13T02:07:32.265Z,5.80
2018-02-13T02:08:33.963Z,6.35
2018-02-13T02:09:35.357Z,6.18
2018-02-13T02:10:37.467Z,6.03
2018-02-13T02:11:38.849Z,5.80
2018-02-13T02:12:40.220Z,5.78
2018-02-13T02:13:42.661Z,6.25
2018-02-13T02:14:44.037Z,5.72
2018-02-13T02:15:45.437Z,5.90
2018-02-13T02:16:46.861Z,5.90
2018-02-13T02:17:48.289Z,6.18
2018-02-13T02:18:49.693Z,6.25
2018-02-13T02:19:51.101Z,6.12
2018-02-13T02:20:52.493Z,6.27
2018-02-13T02:21:53.889Z,6.18
2018-02-13T02:22:56.029Z,6.25
2018-02-13T02:23:57.701Z,6.47
2018-02-13T02:24:59.493Z,6.57
2018-02-13T02:26:00.869Z,6.10
2018-02-13T02:27:02.277Z,5.82
2018-02-13T02:28:03.669Z,5.70
2018-02-13T02:29:06.120Z,5.50
2018-02-13T02:30:08.522Z,5.87
2018-02-13T02:31:10.064Z,5.93
2018-02-13T02:32:12.539Z,5.73
2018-02-13T02:33:14.126Z,5.72
2018-02-13T02:34:16.759Z,5.87
2018-02-13T02:35:18.176Z,5.95
2018-02-13T02:36:19.755Z,6.20
2018-02-13T02:37:22.469Z,6.05
2018-02-13T02:38:24.961Z,5.82
2018-02-13T02:39:26.645Z,6.18
2018-02-13T02:40:28.221Z,5.40
2018-02-13T02:41:30.434Z,5.50
2018-02-13T02:42:51.075Z,5.40
2018-02-13T02:43:52.690Z,6.07
2018-02-13T02:44:55.122Z,6.03
2018-02-13T02:45:56.521Z,6.30
2018-02-13T02:46:58.139Z,6.05
2018-02-13T02:47:59.529Z,6.12
2018-02-13T02:49:00.905Z,5.85
2018-02-13T02:50:02.511Z,5.80
2018-02-13T02:51:03.896Z,6.05
2018-02-13T02:52:05.277Z,6.30
2018-02-13T02:53:06.914Z,6.28
2018-02-13T02:54:08.309Z,5.65
2018-02-13T02:55:10.001Z,6.35
2018-02-13T02:56:13.121Z,6.07
2018-02-13T02:57:14.692Z,6.05
2018-02-13T02:58:16.069Z,5.60
2018-02-13T02:59:17.564Z,6.18
2018-02-13T03:00:19.141Z,5.97
2018-02-13T03:01:21.297Z,5.95
2018-02-13T03:02:23.797Z,5.62
2018-02-13T03:03:25.276Z,6.18
2018-02-13T03:04:26.673Z,5.68
2018-02-13T03:05:28.345Z,5.90
2018-02-13T03:06:29.869Z,5.55
2018-02-13T03:07:31.258Z,5.32
2018-02-13T03:08:32.645Z,6.10
2018-02-13T03:09:35.650Z,6.03
2018-02-13T03:10:37.320Z,5.80
2018-02-13T03:11:39.453Z,6.43
2018-02-13T03:12:42.349Z,6.30
2018-02-13T03:13:45.339Z,6.30
2018-02-13T03:14:46.905Z,6.70
2018-02-13T03:15:48.589Z,7.28
2018-02-13T03:16:50.713Z,6.93
2018-02-13T03:17:52.251Z,6.60
2018-02-13T03:18:53.649Z,6.43
2018-02-13T03:19:56.145Z,5.60
2018-02-13T03:20:57.929Z,6.57
2018-02-13T03:21:59.345Z,6.85
2018-02-13T03:23:00.725Z,6.70
2018-02-13T03:24:02.172Z,6.83
2018-02-13T03:25:03.569Z,6.50
2018-02-13T03:26:05.269Z,6.57
2018-02-13T03:27:06.825Z,6.43
2018-02-13T03:28:09.045Z,6.67
2018-02-13T03:29:10.437Z,6.63
2018-02-13T03:30:11.960Z,6.15
2018-02-13T03:31:14.598Z,6.78
2018-02-13T03:32:15.985Z,6.43
2018-02-13T03:33:17.581Z,6.40
2018-02-13T03:34:19.040Z,6.62
2018-02-13T03:35:20.469Z,6.15
2018-02-13T03:36:22.149Z,6.43
2018-02-13T03:37:24.484Z,7.35
2018-02-13T03:38:25.893Z,6.40
2018-02-13T03:39:27.269Z,6.28
2018-02-13T03:40:28.737Z,6.57
2018-02-13T03:41:30.429Z,5.47
2018-02-13T03:42:33.301Z,6.47
2018-02-13T03:43:34.701Z,6.33
2018-02-13T03:44:36.093Z,6.40
2018-02-13T03:45:37.482Z,6.53
2018-02-13T03:46:38.993Z,6.32
2018-02-13T03:47:41.197Z,6.23
2018-02-13T03:48:43.321Z,6.53
2018-02-13T03:49:45.461Z,6.25
2018-02-13T03:50:48.341Z,6.40
2018-02-13T03:51:50.716Z,5.80
2018-02-13T03:52:52.133Z,5.80
2018-02-13T03:53:53.513Z,6.10
2018-02-13T03:54:55.077Z,6.10
2018-02-13T03:55:57.213Z,5.50
2018-02-13T03:57:32.836Z,5.30
2018-02-13T03:58:34.965Z,5.80
2018-02-13T03:59:37.265Z,6.23
2018-02-13T04:00:38.697Z,6.97
2018-02-13T04:01:40.093Z,6.78
2018-02-13T04:02:42.675Z,6.73
2018-02-13T04:03:44.197Z,6.78
2018-02-13T04:04:45.621Z,6.57
2018-02-13T04:05:47.015Z,6.22
2018-02-13T04:06:49.475Z,6.37
2018-02-13T04:07:52.005Z,6.68
2018-02-13T04:08:53.421Z,5.72
2018-02-13T04:09:55.125Z,6.57
2018-02-13T04:10:57.271Z,6.70
2018-02-13T04:11:58.669Z,6.43
2018-02-13T04:13:00.638Z,6.40
2018-02-13T04:14:02.059Z,6.70
2018-02-13T04:15:03.465Z,6.03
2018-02-13T04:16:06.057Z,6.20
2018-02-13T04:17:07.461Z,7.00
2018-02-13T04:18:09.929Z,6.73
2018-02-13T04:19:12.429Z,6.37
2018-02-13T04:20:13.837Z,6.90
2018-02-13T04:21:15.998Z,6.00
2018-02-13T04:22:18.129Z,6.50
2018-02-13T04:23:19.553Z,6.80
2018-02-13T04:24:20.987Z,6.18
2018-02-13T04:25:22.417Z,6.03
2018-02-13T04:26:24.565Z,6.90
2018-02-13T04:27:25.973Z,7.22
2018-02-13T04:28:27.913Z,7.32
2018-02-13T04:29:29.329Z,7.00
2018-02-13T04:30:30.781Z,7.18
2018-02-13T04:31:33.082Z,7.13
2018-02-13T04:33:15.713Z,6.75
2018-02-13T04:34:17.687Z,6.30
2018-02-13T04:35:19.864Z,7.37
2018-02-13T04:36:22.381Z,7.32
2018-02-13T04:37:23.813Z,6.50
2018-02-13T04:38:25.497Z,6.40
2018-02-13T04:39:27.696Z,6.62
2018-02-13T04:40:29.933Z,6.43
2018-02-13T04:41:32.107Z,6.22
2018-02-13T04:42:34.257Z,6.60
2018-02-13T04:43:37.357Z,6.40
2018-02-13T04:44:39.033Z,6.00
2018-02-13T04:45:40.752Z,6.87
2018-02-13T04:46:42.217Z,6.43
2018-02-13T04:47:43.609Z,5.87
2018-02-13T04:48:45.752Z,7.63
2018-02-13T04:49:49.155Z,7.43
2018-02-13T04:50:52.273Z,8.88
2018-02-13T04:51:54.063Z,14.95
2018-02-13T04:52:56.226Z,15.23
2018-02-13T04:53:57.828Z,18.27
2018-02-13T04:54:59.735Z,16.87
2018-02-13T04:56:01.166Z,14.33
2018-02-13T04:57:03.615Z,10.43
2018-02-13T04:58:05.141Z,7.62
2018-02-13T04:59:06.569Z,7.72
2018-02-13T05:00:08.133Z,6.72
2018-02-13T05:01:09.795Z,6.17
2018-02-13T05:02:11.193Z,6.78
2018-02-13T05:03:12.581Z,5.90
2018-02-13T05:04:13.949Z,6.53
2018-02-13T05:05:15.674Z,6.22
2018-02-13T05:06:17.839Z,6.53
2018-02-13T05:07:19.231Z,6.37
2018-02-13T05:08:20.613Z,6.63
2018-02-13T05:09:23.101Z,6.57
2018-02-13T05:10:24.853Z,6.63
2018-02-13T05:11:27.352Z,6.73
2018-02-13T05:12:28.805Z,7.10
2018-02-13T05:13:31.073Z,6.50
2018-02-13T05:14:33.985Z,7.10
2018-02-13T05:15:35.389Z,7.87
2018-02-13T05:16:37.533Z,7.20
2018-02-13T05:17:38.925Z,7.50
2018-02-13T05:18:40.315Z,7.35
2018-02-13T05:19:42.000Z,8.07
2018-02-13T05:20:43.661Z,7.50
2018-02-13T05:21:45.065Z,8.17
2018-02-13T05:22:46.463Z,8.93
2018-02-13T05:23:48.129Z,8.02
2018-02-13T05:24:50.280Z,8.20
2018-02-13T05:25:51.705Z,8.43
2018-02-13T05:26:53.101Z,8.73
2018-02-13T05:27:54.480Z,8.03
2018-02-13T05:28:55.874Z,7.85
2018-02-13T05:29:58.129Z,7.00
2018-02-13T05:31:00.545Z,7.05
2018-02-13T05:32:01.973Z,6.82
2018-02-13T05:33:03.353Z,6.68
2018-02-13T05:34:04.745Z,6.93
2018-02-13T05:35:06.139Z,6.97
2018-02-13T05:36:07.697Z,7.10
2018-02-13T05:37:09.954Z,6.50
2018-02-13T05:38:15.039Z,7.43
2018-02-13T05:39:17.177Z,8.13
2018-02-13T05:40:18.581Z,6.72
2018-02-13T05:41:21.133Z,6.82
2018-02-13T05:42:23.271Z,6.75
2018-02-13T05:43:24.663Z,6.97
2018-02-13T05:44:26.121Z,6.67
2018-02-13T05:45:27.673Z,7.50
2018-02-13T05:46:29.937Z,7.32
2018-02-13T05:47:31.361Z,8.40
2018-02-13T05:48:32.930Z,8.95
2018-02-13T05:49:34.321Z,8.68
2018-02-13T05:50:35.706Z,7.87
2018-02-13T05:51:37.413Z,7.30
2018-02-13T05:52:38.805Z,8.15
2018-02-13T05:53:40.205Z,7.50
2018-02-13T05:54:42.496Z,7.25
2018-02-13T05:55:43.883Z,7.37
2018-02-13T05:56:45.305Z,7.10
2018-02-13T05:57:47.441Z,7.12
2018-02-13T05:58:50.329Z,7.65
2018-02-13T05:59:52.505Z,7.32
2018-02-13T06:00:54.013Z,6.80
2018-02-13T06:01:55.921Z,6.82
2018-02-13T06:02:57.331Z,6.60
2018-02-13T06:03:58.722Z,6.28
2018-02-13T06:05:00.859Z,7.07
2018-02-13T06:06:02.261Z,7.73
2018-02-13T06:07:03.685Z,6.87
2018-02-13T06:08:05.065Z,6.87
2018-02-13T06:09:06.661Z,6.17
2018-02-13T06:10:09.818Z,6.55
2018-02-13T06:11:12.915Z,6.78
2018-02-13T06:12:16.274Z,6.70
2018-02-13T06:13:18.789Z,6.70
2018-02-13T06:14:20.174Z,6.43
2018-02-13T06:15:21.829Z,7.05
2018-02-13T06:16:25.069Z,6.87
2018-02-13T06:17:28.195Z,7.47
2018-02-13T06:18:30.337Z,8.27
2018-02-13T06:19:31.727Z,8.02
2018-02-13T06:20:33.505Z,8.25
2018-02-13T06:21:35.035Z,8.45
2018-02-13T06:22:37.141Z,8.05
2018-02-13T06:23:40.483Z,7.57
2018-02-13T06:24:42.213Z,7.40
2018-02-13T06:25:44.527Z,9.82
2018-02-13T06:26:46.030Z,9.30
2018-02-13T06:27:47.691Z,9.43
2018-02-13T06:28:49.337Z,9.75
2018-02-13T06:29:52.763Z,8.60
2018-02-13T06:30:56.033Z,9.13
2018-02-13T06:31:59.447Z,8.60
2018-02-13T06:33:01.425Z,8.60
2018-02-13T06:34:03.085Z,8.73
2018-02-13T06:35:04.787Z,8.50
2018-02-13T06:36:08.087Z,8.50
2018-02-13T06:37:10.731Z,8.40
2018-02-13T06:38:12.335Z,8.90
2018-02-13T06:39:15.649Z,7.75
2018-02-13T06:40:18.953Z,7.22
2018-02-13T06:41:21.531Z,7.40
2018-02-13T06:42:23.091Z,7.43
2018-02-13T06:43:25.883Z,7.32
2018-02-13T06:44:29.045Z,7.05
2018-02-13T06:45:30.715Z,6.95
2018-02-13T06:46:32.311Z,7.30
2018-02-13T06:47:34.640Z,7.30
2018-02-13T06:48:36.493Z,6.93
2018-02-13T06:49:38.269Z,7.85
2018-02-13T06:50:41.465Z,8.05
2018-02-13T06:51:42.999Z,8.13
2018-02-13T06:52:45.899Z,7.65
2018-02-13T06:53:49.195Z,7.75
2018-02-13T06:54:50.695Z,7.40
2018-02-13T06:55:53.755Z,7.95
2018-02-13T06:56:55.443Z,7.50
2018-02-13T06:57:57.835Z,8.18
2018-02-13T06:58:59.597Z,8.02
2018-02-13T07:00:01.309Z,7.40
2018-02-13T07:01:04.455Z,7.70
2018-02-13T07:02:06.179Z,7.40
2018-02-13T07:03:07.809Z,7.47
2018-02-13T07:04:09.527Z,7.10
2018-02-13T07:05:12.894Z,6.93
2018-02-13T07:06:14.639Z,7.93
2018-02-13T07:07:17.762Z,7.60
2018-02-13T07:08:19.497Z,7.53
2018-02-13T07:09:21.317Z,7.50
2018-02-13T07:10:23.561Z,7.82
2018-02-13T07:11:25.156Z,7.87
2018-02-13T07:12:28.519Z,8.20
2018-02-13T07:13:30.083Z,7.77
2018-02-13T07:14:31.901Z,7.73
2018-02-13T07:15:35.085Z,7.12
2018-02-13T07:16:38.418Z,7.18
2018-02-13T07:17:41.509Z,7.50
2018-02-13T07:18:42.909Z,7.30
2018-02-13T07:19:46.158Z,6.53
2018-02-13T07:20:49.305Z,6.87
2018-02-13T07:21:52.559Z,6.80
2018-02-13T07:22:53.966Z,7.30
2018-02-13T07:23:55.559Z,6.95
2018-02-13T07:24:57.065Z,7.25
2018-02-13T07:25:58.513Z,6.45
2018-02-13T07:27:01.845Z,6.93
2018-02-13T07:28:03.440Z,5.95
2018-02-13T07:29:05.585Z,7.37
2018-02-13T07:30:08.956Z,6.57
2018-02-13T07:31:12.125Z,7.47
2018-02-13T07:32:13.505Z,7.82
2018-02-13T07:33:15.033Z,8.10
2018-02-13T07:34:17.540Z,8.93
2018-02-13T07:35:18.949Z,9.00
2018-02-13T07:36:22.037Z,9.55
2018-02-13T07:37:25.154Z,10.10
2018-02-13T07:38:26.775Z,10.55
2018-02-13T07:39:28.189Z,9.60
2018-02-13T07:40:31.317Z,9.93
2018-02-13T07:41:33.587Z,10.48
2018-02-13T07:42:34.985Z,10.27
2018-02-13T07:43:36.361Z,9.48
2018-02-13T07:44:37.837Z,9.45
2018-02-13T07:45:40.947Z,8.65
2018-02-13T07:46:42.345Z,8.00
2018-02-13T07:47:45.453Z,7.80
2018-02-13T07:48:48.546Z,7.82
2018-02-13T07:49:49.994Z,8.70
2018-02-13T07:50:51.413Z,7.70
2018-02-13T07:51:53.549Z,7.20
2018-02-13T07:52:55.094Z,7.40
2018-02-13T07:53:56.592Z,6.87
2018-02-13T07:54:57.979Z,6.55
2018-02-13T07:56:00.601Z,7.22
2018-02-13T07:57:01.998Z,7.18
2018-02-13T07:58:04.525Z,7.00
2018-02-13T07:59:06.089Z,6.60
2018-02-13T08:00:08.621Z,7.37
2018-02-13T08:01:10.301Z,7.07
2018-02-13T08:02:13.405Z,7.10
2018-02-13T08:03:16.493Z,6.40
2018-02-13T08:04:18.064Z,7.65
2018-02-13T08:05:19.457Z,7.27
2018-02-13T08:06:22.568Z,6.62
2018-02-13T08:07:24.181Z,6.45
2018-02-13T08:08:25.641Z,6.53
2018-02-13T08:09:27.042Z,6.62
2018-02-13T08:10:28.623Z,6.93
2018-02-13T08:11:30.278Z,6.82
2018-02-13T08:12:33.413Z,6.50
2018-02-13T08:13:35.550Z,6.78
2018-02-13T08:14:37.030Z,6.30
2018-02-13T08:15:40.293Z,6.07
2018-02-13T08:16:43.421Z,6.33
2018-02-13T08:17:46.529Z,6.80
2018-02-13T08:18:47.982Z,6.43
2018-02-13T08:19:49.381Z,6.90
2018-02-13T08:20:52.481Z,6.60
2018-02-13T08:21:54.165Z,6.53
2018-02-13T08:22:55.550Z,6.70
2018-02-13T08:23:56.937Z,7.55
2018-02-13T08:24:58.329Z,6.87
2018-02-13T08:26:00.481Z,8.13
2018-02-13T08:27:02.895Z,8.40
2018-02-13T08:28:05.993Z,8.38
2018-02-13T08:29:09.089Z,7.78
2018-02-13T08:30:12.203Z,8.15
2018-02-13T08:31:13.613Z,7.62
2018-02-13T08:32:15.097Z,6.87
2018-02-13T08:33:16.486Z,7.00
2018-02-13T08:34:18.605Z,7.17
2018-02-13T08:35:20.010Z,7.15
2018-02-13T08:36:21.597Z,6.37
2018-02-13T08:37:23.208Z,7.10
2018-02-13T08:38:24.597Z,7.22
2018-02-13T08:39:27.679Z,7.20
2018-02-13T08:40:30.773Z,7.13
2018-02-13T08:41:32.289Z,7.40
2018-02-13T08:42:35.687Z,7.57
2018-02-13T08:43:38.566Z,7.17
2018-02-13T08:44:40.050Z,7.70
2018-02-13T08:45:41.699Z,7.68
2018-02-13T08:46:43.097Z,7.65
2018-02-13T08:47:44.653Z,7.57
2018-02-13T08:48:47.517Z,7.47
2018-02-13T08:49:48.918Z,8.07
2018-02-13T08:50:50.348Z,8.30
2018-02-13T08:51:51.903Z,7.90
2018-02-13T08:52:53.327Z,7.80
2018-02-13T08:53:54.721Z,7.50
2018-02-13T08:54:57.817Z,8.35
2018-02-13T08:55:59.194Z,8.02
2018-02-13T08:57:00.573Z,7.37
2018-02-13T08:58:02.078Z,7.33
2018-02-13T08:59:03.453Z,7.63
2018-02-13T09:00:05.598Z,8.07
2018-02-13T09:01:08.689Z,8.73
2018-02-13T09:02:10.077Z,8.43
2018-02-13T09:03:11.759Z,8.30
2018-02-13T09:04:14.630Z,9.10
2018-02-13T09:05:17.739Z,7.70
2018-02-13T09:06:19.263Z,8.07
2018-02-13T09:07:22.361Z,8.23
2018-02-13T09:08:24.601Z,7.53
2018-02-13T09:09:27.744Z,8.07
2018-02-13T09:10:29.246Z,7.70
2018-02-13T09:11:30.675Z,6.90
2018-02-13T09:12:32.095Z,7.57
2018-02-13T09:13:34.829Z,7.20
2018-02-13T09:14:36.410Z,8.53
2018-02-13T09:15:38.571Z,7.00
2018-02-13T09:16:40.684Z,8.32
2018-02-13T09:17:42.277Z,8.23
2018-02-13T09:18:45.455Z,7.90
2018-02-13T09:19:47.686Z,8.27
2018-02-13T09:20:49.141Z,8.25
2018-02-13T09:21:52.337Z,8.33
2018-02-13T09:22:55.653Z,8.20
2018-02-13T09:23:57.333Z,8.60
2018-02-13T09:25:00.427Z,9.53
2018-02-13T09:26:03.536Z,9.27
2018-02-13T09:27:04.974Z,9.52
2018-02-13T09:28:06.413Z,11.07
2018-02-13T09:29:08.562Z,10.25
2018-02-13T09:30:10.013Z,10.35
2018-02-13T09:31:11.413Z,9.88
2018-02-13T09:32:14.521Z,10.40
2018-02-13T09:33:17.749Z,10.68
2018-02-13T09:34:20.921Z,10.25
2018-02-13T09:35:22.325Z,10.10
2018-02-13T09:36:25.427Z,9.73
2018-02-13T09:37:27.561Z,10.82
2018-02-13T09:38:29.135Z,9.35
2018-02-13T09:39:30.545Z,8.88
2018-02-13T09:40:31.925Z,10.15
2018-02-13T09:41:33.469Z,10.63
2018-02-13T09:42:35.757Z,10.43
2018-02-13T09:43:37.186Z,8.50
2018-02-13T09:44:38.620Z,7.80
2018-02-13T09:45:40.082Z,8.20
2018-02-13T09:46:41.689Z,7.47
2018-02-13T09:47:43.081Z,6.75
2018-02-13T09:48:46.167Z,7.97
2018-02-13T09:49:48.942Z,7.10
2018-02-13T09:50:50.463Z,8.38
2018-02-13T09:51:52.609Z,7.93
2018-02-13T09:52:54.006Z,7.20
2018-02-13T09:53:55.561Z,7.63
2018-02-13T09:54:56.990Z,6.12
2018-02-13T09:55:58.489Z,5.65
2018-02-13T09:57:00.639Z,5.87
2018-02-13T09:58:03.709Z,6.68
2018-02-13T09:59:05.126Z,5.82
2018-02-13T10:00:06.955Z,6.28
2018-02-13T10:01:08.580Z,6.72
2018-02-13T10:02:09.996Z,6.60
2018-02-13T10:03:13.287Z,6.68
2018-02-13T10:04:14.908Z,6.80
2018-02-13T10:05:16.577Z,6.80
2018-02-13T10:06:19.673Z,6.90
2018-02-13T10:07:22.543Z,6.87
2018-02-13T10:08:24.926Z,5.90
2018-02-13T10:09:28.167Z,6.27
2018-02-13T10:10:29.641Z,6.28
2018-02-13T10:11:32.757Z,6.65
2018-02-13T10:12:34.197Z,7.03
2018-02-13T10:13:35.598Z,6.60
2018-02-13T10:14:37.086Z,7.10
2018-02-13T10:15:38.640Z,6.65
2018-02-13T10:16:41.809Z,6.62
2018-02-13T10:17:43.234Z,7.35
2018-02-13T10:18:44.715Z,8.13
2018-02-13T10:19:48.010Z,7.80
2018-02-13T10:20:49.681Z,8.38
2018-02-13T10:21:51.144Z,7.30
2018-02-13T10:22:52.735Z,8.25
2018-02-13T10:23:55.793Z,8.20
2018-02-13T10:24:58.665Z,7.53
2018-02-13T10:26:00.284Z,7.90
2018-02-13T10:27:03.445Z,8.25
2018-02-13T10:28:04.866Z,8.32
2018-02-13T10:29:06.342Z,9.40
2018-02-13T10:30:07.886Z,8.13
2018-02-13T10:31:09.286Z,7.70
2018-02-13T10:32:12.388Z,7.60
2018-02-13T10:33:15.479Z,8.23
2018-02-13T10:34:17.068Z,7.25
2018-02-13T10:35:19.784Z,7.47
2018-02-13T10:36:21.471Z,7.77
2018-02-13T10:37:22.878Z,6.97
2018-02-13T10:38:24.415Z,7.67
2018-02-13T10:39:27.533Z,7.70
2018-02-13T10:40:30.642Z,8.07
2018-02-13T10:41:32.077Z,6.90
2018-02-13T10:42:34.843Z,7.80
2018-02-13T10:43:36.366Z,6.72
2018-02-13T10:44:39.478Z,7.00
2018-02-13T10:45:42.566Z,6.70
2018-02-13T10:46:44.106Z,6.50
2018-02-13T10:47:45.505Z,6.30
2018-02-13T10:48:48.597Z,5.83
2018-02-13T10:49:50.029Z,6.22
2018-02-13T10:50:51.402Z,5.80
2018-02-13T10:51:54.925Z,5.57
2018-02-13T10:52:56.328Z,5.40
2018-02-13T10:53:57.771Z,5.45
2018-02-13T10:54:59.262Z,4.87
2018-02-13T10:56:00.685Z,5.68
2018-02-13T10:57:03.748Z,5.57
2018-02-13T10:58:05.217Z,5.60
2018-02-13T10:59:06.635Z,6.07
2018-02-13T11:00:08.088Z,5.67
2018-02-13T11:01:15.373Z,7.60
2018-02-13T11:02:22.815Z,6.35
2018-02-13T11:03:24.206Z,6.47
2018-02-13T11:04:25.860Z,6.30
2018-02-13T11:05:27.271Z,6.67
2018-02-13T11:06:28.680Z,7.00
2018-02-13T11:07:30.350Z,7.10
2018-02-13T11:08:33.478Z,7.13
2018-02-13T11:09:35.630Z,6.82
2018-02-13T11:10:37.036Z,6.20
2018-02-13T11:11:38.434Z,6.90
2018-02-13T11:12:41.682Z,6.80
2018-02-13T11:13:44.930Z,7.25
2018-02-13T11:14:46.358Z,6.50
2018-02-13T11:15:47.914Z,6.78
2018-02-13T11:16:49.480Z,6.78
2018-02-13T11:17:52.650Z,6.70
2018-02-13T11:18:54.058Z,6.13
2018-02-13T11:19:55.484Z,6.73
2018-02-13T11:20:57.673Z,6.23
2018-02-13T11:21:59.104Z,6.62
2018-02-13T11:23:00.690Z,6.25
2018-02-13T11:24:02.078Z,6.45
2018-02-13T11:25:03.530Z,5.53
2018-02-13T11:26:06.656Z,5.93
2018-02-13T11:27:08.055Z,6.80
2018-02-13T11:28:09.460Z,6.68
2018-02-13T11:29:12.557Z,6.07
2018-02-13T11:30:14.682Z,7.18
2018-02-13T11:31:17.972Z,6.15
2018-02-13T11:32:19.395Z,5.57
2018-02-13T11:33:22.534Z,5.43
2018-02-13T11:34:25.690Z,5.00
2018-02-13T11:35:27.232Z,6.37
2018-02-13T11:36:28.662Z,5.60
2018-02-13T11:37:30.069Z,5.60
2018-02-13T11:38:31.516Z,6.07
2018-02-13T11:39:34.796Z,5.80
2018-02-13T11:40:36.209Z,5.70
2018-02-13T11:41:37.617Z,6.00
2018-02-13T11:42:39.080Z,6.32
2018-02-13T11:43:42.203Z,5.95
2018-02-13T11:44:43.613Z,5.82
2018-02-13T11:45:45.244Z,6.05
2018-02-13T11:46:46.678Z,5.87
2018-02-13T11:47:49.778Z,6.47
2018-02-13T11:48:51.232Z,5.67
2018-02-13T11:49:52.622Z,6.87
2018-02-13T11:50:54.020Z,7.27
2018-02-13T11:51:55.594Z,7.20
2018-02-13T11:52:57.880Z,6.23
2018-02-13T11:53:59.320Z,6.07
2018-02-13T11:55:00.870Z,6.82
2018-02-13T11:56:02.484Z,6.28
2018-02-13T11:57:05.603Z,7.37
2018-02-13T11:58:07.010Z,7.57
2018-02-13T11:59:08.412Z,6.68
2018-02-13T12:00:11.990Z,6.80
2018-02-13T12:01:13.407Z,6.32
2018-02-13T12:02:18.426Z,6.37
2018-02-13T12:03:21.517Z,7.43
2018-02-13T12:04:23.942Z,7.05
2018-02-13T12:05:28.026Z,7.17
2018-02-13T12:06:31.263Z,6.95
2018-02-13T12:07:32.690Z,6.25
2018-02-13T12:08:34.192Z,6.40
2018-02-13T12:09:35.630Z,6.80
2018-02-13T12:10:38.890Z,6.32
2018-02-13T12:11:40.308Z,6.30
2018-02-13T12:12:41.728Z,6.53
2018-02-13T12:13:43.131Z,6.53
2018-02-13T12:14:44.696Z,6.17
2018-02-13T12:15:46.120Z,6.70
2018-02-13T12:16:48.680Z,6.55
2018-02-13T12:17:51.812Z,6.22
2018-02-13T12:18:53.198Z,6.37
2018-02-13T12:19:54.902Z,5.57
2018-02-13T12:20:56.352Z,6.67
2018-02-13T12:21:57.742Z,8.63
2018-02-13T12:23:00.924Z,7.75
2018-02-13T12:24:03.786Z,8.37
2018-02-13T12:25:05.434Z,7.67
2018-02-13T12:26:08.547Z,6.90
2018-02-13T12:27:10.736Z,7.03
2018-02-13T12:28:12.285Z,6.33
2018-02-13T12:29:13.681Z,6.50
2018-02-13T12:30:15.108Z,6.10
2018-02-13T12:31:16.721Z,6.57
2018-02-13T12:32:19.658Z,8.52
2018-02-13T12:33:21.096Z,8.23
2018-02-13T12:34:22.758Z,9.77
2018-02-13T12:35:24.181Z,10.50
2018-02-13T12:36:25.656Z,8.30
2018-02-13T12:37:27.244Z,7.27
2018-02-13T12:38:28.814Z,6.40
2018-02-13T12:39:30.250Z,8.57
2018-02-13T12:40:31.886Z,7.37
2018-02-13T12:41:35.169Z,7.75
2018-02-13T12:42:36.644Z,7.40
2018-02-13T12:43:38.224Z,7.68
2018-02-13T12:44:41.342Z,6.68
2018-02-13T12:45:42.784Z,6.07
2018-02-13T12:46:44.188Z,5.62
2018-02-13T12:47:46.734Z,5.40
2018-02-13T12:48:48.146Z,5.80
2018-02-13T12:49:49.582Z,4.80
2018-02-13T12:50:51.448Z,5.47
2018-02-13T12:51:54.645Z,4.57
2018-02-13T12:52:57.950Z,5.30
2018-02-13T12:53:59.403Z,5.23
2018-02-13T12:55:02.738Z,5.30
2018-02-13T12:56:04.342Z,4.93
2018-02-13T12:57:05.772Z,4.78
2018-02-13T12:58:07.204Z,5.80
2018-02-13T12:59:09.884Z,5.90
2018-02-13T13:00:11.290Z,5.70
2018-02-13T13:01:12.706Z,5.50
2018-02-13T13:02:14.302Z,5.45
2018-02-13T13:03:15.738Z,5.93
2018-02-13T13:04:18.856Z,5.70
2018-02-13T13:05:20.269Z,5.17
2018-02-13T13:06:22.846Z,5.00
2018-02-13T13:07:24.288Z,5.32
2018-02-13T13:08:26.820Z,5.30
2018-02-13T13:09:29.964Z,5.60
2018-02-13T13:10:31.624Z,5.37
2018-02-13T13:11:33.062Z,5.03
2018-02-13T13:12:34.444Z,5.50
2018-02-13T13:13:37.628Z,4.97
2018-02-13T13:14:39.748Z,5.40
2018-02-13T13:15:41.136Z,4.95
2018-02-13T13:16:42.808Z,4.75
2018-02-13T13:17:44.196Z,4.68
2018-02-13T13:18:47.280Z,4.80
2018-02-13T13:19:49.780Z,4.57
2018-02-13T13:20:52.662Z,5.10
2018-02-13T13:21:54.258Z,5.17
2018-02-13T13:22:55.668Z,4.77
2018-02-13T13:23:57.042Z,4.20
2018-02-13T13:24:58.650Z,4.40
2018-02-13T13:26:01.772Z,3.90
2018-02-13T13:27:03.438Z,3.67
2018-02-13T13:28:05.072Z,3.90
2018-02-13T13:29:06.468Z,3.60
2018-02-13T13:30:09.600Z,4.05
2018-02-13T13:31:10.992Z,4.00
2018-02-13T13:32:12.406Z,4.30
2018-02-13T13:33:15.508Z,5.10
2018-02-13T13:34:17.676Z,4.90
2018-02-13T13:35:20.776Z,4.82
2018-02-13T13:36:22.318Z,4.70
2018-02-13T13:37:23.728Z,4.23
2018-02-13T13:38:25.121Z,4.80
2018-02-13T13:39:26.742Z,5.33
2018-02-13T13:40:28.164Z,4.83
2018-02-13T13:41:30.652Z,4.70
2018-02-13T13:42:33.010Z,5.70
2018-02-13T13:43:34.602Z,5.97
2018-02-13T13:44:36.737Z,5.22
2018-02-13T13:45:38.344Z,5.93